sensor_id;sensor_type;location;lat;lon;timestamp;P1;durP1;ratioP1;P2;durP2;ratioP2
20855;SDS011;63058;49.424;8.420;2022-09-09T00:00:20;1.83;;;0.60;;
20855;SDS011;63058;49.424;8.420;2022-09-09T00:05:55;1.88;;;0.70;;
20855;SDS011;63058;49.424;8.420;2022-09-09T00:08:40;1.58;;;0.60;;
20855;SDS011;63058;49.424;8.420;2022-09-09T00:12:14;2.25;;;0.80;;
20855;SDS011;63058;49.424;8.420;2022-09-09T00:14:26;1.85;;;0.80;;
20855;SDS011;63058;49.424;8.420;2022-09-09T00:17:23;7.30;;;1.02;;
20855;SDS011;63058;49.424;8.420;2022-09-09T00:22:33;2.38;;;1.08;;
20855;SDS011;63058;49.424;8.420;2022-09-09T00:25:10;1.98;;;0.90;;
20855;SDS011;63058;49.424;8.420;2022-09-09T00:27:40;1.27;;;0.82;;
20855;SDS011;63058;49.424;8.420;2022-09-09T00:30:15;4.78;;;1.40;;
20855;SDS011;63058;49.424;8.420;2022-09-09T00:32:47;4.20;;;1.45;;
20855;SDS011;63058;49.424;8.420;2022-09-09T00:37:58;2.40;;;1.60;;
20855;SDS011;63058;49.424;8.420;2022-09-09T00:40:32;2.53;;;1.75;;
20855;SDS011;63058;49.424;8.420;2022-09-09T00:45:59;1.08;;;0.98;;
20855;SDS011;63058;49.424;8.420;2022-09-09T00:49:23;2.92;;;0.98;;
20855;SDS011;63058;49.424;8.420;2022-09-09T00:56:45;2.58;;;1.00;;
20855;SDS011;63058;49.424;8.420;2022-09-09T00:59:24;1.65;;;0.90;;
20855;SDS011;63058;49.424;8.420;2022-09-09T01:01:57;2.65;;;1.20;;
20855;SDS011;63058;49.424;8.420;2022-09-09T01:04:27;1.23;;;0.70;;
20855;SDS011;63058;49.424;8.420;2022-09-09T01:06:59;1.10;;;0.77;;
20855;SDS011;63058;49.424;8.420;2022-09-09T01:09:40;1.13;;;0.70;;
20855;SDS011;63058;49.424;8.420;2022-09-09T01:12:38;3.08;;;0.95;;
20855;SDS011;63058;49.424;8.420;2022-09-09T01:15:19;1.00;;;0.60;;
20855;SDS011;63058;49.424;8.420;2022-09-09T01:20:27;1.67;;;0.70;;
20855;SDS011;63058;49.424;8.420;2022-09-09T01:28:22;1.75;;;0.88;;
20855;SDS011;63058;49.424;8.420;2022-09-09T01:30:52;1.33;;;0.70;;
20855;SDS011;63058;49.424;8.420;2022-09-09T01:33:19;1.80;;;0.70;;
20855;SDS011;63058;49.424;8.420;2022-09-09T01:38:13;1.10;;;0.60;;
20855;SDS011;63058;49.424;8.420;2022-09-09T01:40:40;0.90;;;0.70;;
20855;SDS011;63058;49.424;8.420;2022-09-09T01:43:06;1.05;;;0.65;;
20855;SDS011;63058;49.424;8.420;2022-09-09T01:45:32;0.98;;;0.70;;
20855;SDS011;63058;49.424;8.420;2022-09-09T01:47:59;1.42;;;0.60;;
20855;SDS011;63058;49.424;8.420;2022-09-09T01:50:28;2.33;;;0.80;;
20855;SDS011;63058;49.424;8.420;2022-09-09T01:52:55;2.55;;;0.65;;
20855;SDS011;63058;49.424;8.420;2022-09-09T01:55:28;1.10;;;0.60;;
20855;SDS011;63058;49.424;8.420;2022-09-09T01:58:06;3.35;;;0.80;;
20855;SDS011;63058;49.424;8.420;2022-09-09T02:00:35;1.67;;;0.70;;
20855;SDS011;63058;49.424;8.420;2022-09-09T02:03:49;6.28;;;1.10;;
20855;SDS011;63058;49.424;8.420;2022-09-09T02:06:02;2.17;;;0.65;;
20855;SDS011;63058;49.424;8.420;2022-09-09T02:08:50;3.38;;;0.75;;
20855;SDS011;63058;49.424;8.420;2022-09-09T02:11:18;0.98;;;0.50;;
20855;SDS011;63058;49.424;8.420;2022-09-09T02:13:47;2.33;;;0.68;;
20855;SDS011;63058;49.424;8.420;2022-09-09T02:16:17;1.88;;;0.70;;
20855;SDS011;63058;49.424;8.420;2022-09-09T02:21:28;2.10;;;0.75;;
20855;SDS011;63058;49.424;8.420;2022-09-09T02:23:56;2.50;;;0.90;;
20855;SDS011;63058;49.424;8.420;2022-09-09T02:26:24;1.85;;;0.70;;
20855;SDS011;63058;49.424;8.420;2022-09-09T02:28:51;1.13;;;0.60;;
20855;SDS011;63058;49.424;8.420;2022-09-09T02:31:20;2.00;;;0.60;;
20855;SDS011;63058;49.424;8.420;2022-09-09T02:33:53;3.47;;;0.65;;
20855;SDS011;63058;49.424;8.420;2022-09-09T02:36:24;2.17;;;0.60;;
20855;SDS011;63058;49.424;8.420;2022-09-09T02:38:54;1.98;;;0.75;;
20855;SDS011;63058;49.424;8.420;2022-09-09T02:41:23;1.80;;;0.80;;
20855;SDS011;63058;49.424;8.420;2022-09-09T02:43:52;1.25;;;0.65;;
20855;SDS011;63058;49.424;8.420;2022-09-09T02:48:59;1.70;;;0.60;;
20855;SDS011;63058;49.424;8.420;2022-09-09T02:51:53;3.25;;;0.70;;
20855;SDS011;63058;49.424;8.420;2022-09-09T02:54:32;1.58;;;0.60;;
20855;SDS011;63058;49.424;8.420;2022-09-09T02:57:06;1.63;;;0.60;;
20855;SDS011;63058;49.424;8.420;2022-09-09T02:59:36;3.90;;;0.80;;
20855;SDS011;63058;49.424;8.420;2022-09-09T03:02:03;1.95;;;0.70;;
20855;SDS011;63058;49.424;8.420;2022-09-09T03:04:29;1.45;;;0.60;;
20855;SDS011;63058;49.424;8.420;2022-09-09T03:06:56;0.73;;;0.50;;
20855;SDS011;63058;49.424;8.420;2022-09-09T03:09:22;1.90;;;0.70;;
20855;SDS011;63058;49.424;8.420;2022-09-09T03:11:48;2.10;;;0.80;;
20855;SDS011;63058;49.424;8.420;2022-09-09T03:14:14;4.32;;;0.68;;
20855;SDS011;63058;49.424;8.420;2022-09-09T03:16:41;1.63;;;0.68;;
20855;SDS011;63058;49.424;8.420;2022-09-09T03:19:08;1.45;;;0.75;;
20855;SDS011;63058;49.424;8.420;2022-09-09T03:21:33;1.63;;;0.60;;
20855;SDS011;63058;49.424;8.420;2022-09-09T03:23:59;2.22;;;0.70;;
20855;SDS011;63058;49.424;8.420;2022-09-09T03:26:28;2.30;;;0.52;;
20855;SDS011;63058;49.424;8.420;2022-09-09T03:28:55;1.88;;;0.60;;
20855;SDS011;63058;49.424;8.420;2022-09-09T03:31:21;4.32;;;0.70;;
20855;SDS011;63058;49.424;8.420;2022-09-09T03:33:46;1.73;;;0.55;;
20855;SDS011;63058;49.424;8.420;2022-09-09T03:36:13;4.22;;;0.75;;
20855;SDS011;63058;49.424;8.420;2022-09-09T03:38:39;2.15;;;0.60;;
20855;SDS011;63058;49.424;8.420;2022-09-09T03:41:05;2.25;;;0.60;;
20855;SDS011;63058;49.424;8.420;2022-09-09T03:43:32;2.10;;;0.50;;
20855;SDS011;63058;49.424;8.420;2022-09-09T03:45:58;0.90;;;0.43;;
20855;SDS011;63058;49.424;8.420;2022-09-09T03:48:24;3.35;;;0.65;;
20855;SDS011;63058;49.424;8.420;2022-09-09T03:50:52;1.95;;;0.60;;
20855;SDS011;63058;49.424;8.420;2022-09-09T03:53:19;2.70;;;0.63;;
20855;SDS011;63058;49.424;8.420;2022-09-09T03:55:47;2.25;;;0.40;;
20855;SDS011;63058;49.424;8.420;2022-09-09T03:58:15;1.48;;;0.50;;
20855;SDS011;63058;49.424;8.420;2022-09-09T04:00:43;1.63;;;0.63;;
20855;SDS011;63058;49.424;8.420;2022-09-09T04:03:18;2.65;;;0.60;;
20855;SDS011;63058;49.424;8.420;2022-09-09T04:05:43;2.20;;;0.60;;
20855;SDS011;63058;49.424;8.420;2022-09-09T04:08:09;1.45;;;0.60;;
20855;SDS011;63058;49.424;8.420;2022-09-09T04:10:35;2.20;;;0.52;;
20855;SDS011;63058;49.424;8.420;2022-09-09T04:13:03;1.35;;;0.60;;
20855;SDS011;63058;49.424;8.420;2022-09-09T04:15:30;1.45;;;0.55;;
20855;SDS011;63058;49.424;8.420;2022-09-09T04:17:55;1.80;;;0.60;;
20855;SDS011;63058;49.424;8.420;2022-09-09T04:20:21;1.65;;;0.50;;
20855;SDS011;63058;49.424;8.420;2022-09-09T04:22:47;3.80;;;0.80;;
20855;SDS011;63058;49.424;8.420;2022-09-09T04:25:13;1.75;;;0.50;;
20855;SDS011;63058;49.424;8.420;2022-09-09T04:27:39;1.52;;;0.70;;
20855;SDS011;63058;49.424;8.420;2022-09-09T04:30:05;2.05;;;0.55;;
20855;SDS011;63058;49.424;8.420;2022-09-09T04:32:32;1.52;;;0.70;;
20855;SDS011;63058;49.424;8.420;2022-09-09T04:35:01;0.70;;;0.43;;
20855;SDS011;63058;49.424;8.420;2022-09-09T04:37:27;4.75;;;0.70;;
20855;SDS011;63058;49.424;8.420;2022-09-09T04:39:53;0.85;;;0.38;;
20855;SDS011;63058;49.424;8.420;2022-09-09T04:42:19;1.77;;;0.50;;
20855;SDS011;63058;49.424;8.420;2022-09-09T04:44:44;1.42;;;0.50;;
20855;SDS011;63058;49.424;8.420;2022-09-09T04:47:10;3.35;;;0.50;;
20855;SDS011;63058;49.424;8.420;2022-09-09T04:49:36;2.03;;;0.60;;
20855;SDS011;63058;49.424;8.420;2022-09-09T04:52:03;1.17;;;0.47;;
20855;SDS011;63058;49.424;8.420;2022-09-09T04:54:29;1.27;;;0.50;;
20855;SDS011;63058;49.424;8.420;2022-09-09T04:56:54;0.52;;;0.40;;
20855;SDS011;63058;49.424;8.420;2022-09-09T04:59:20;2.65;;;0.80;;
20855;SDS011;63058;49.424;8.420;2022-09-09T05:01:46;1.17;;;0.50;;
20855;SDS011;63058;49.424;8.420;2022-09-09T05:04:12;3.80;;;0.60;;
20855;SDS011;63058;49.424;8.420;2022-09-09T05:06:40;2.08;;;0.40;;
20855;SDS011;63058;49.424;8.420;2022-09-09T05:09:06;2.50;;;0.40;;
20855;SDS011;63058;49.424;8.420;2022-09-09T05:11:32;1.55;;;0.40;;
20855;SDS011;63058;49.424;8.420;2022-09-09T05:13:59;1.08;;;0.38;;
20855;SDS011;63058;49.424;8.420;2022-09-09T05:16:25;1.17;;;0.40;;
20855;SDS011;63058;49.424;8.420;2022-09-09T05:18:51;2.55;;;0.40;;
20855;SDS011;63058;49.424;8.420;2022-09-09T05:21:17;1.33;;;0.40;;
20855;SDS011;63058;49.424;8.420;2022-09-09T05:23:44;1.33;;;0.50;;
20855;SDS011;63058;49.424;8.420;2022-09-09T05:26:14;1.35;;;0.47;;
20855;SDS011;63058;49.424;8.420;2022-09-09T05:28:42;0.80;;;0.47;;
20855;SDS011;63058;49.424;8.420;2022-09-09T05:31:08;0.75;;;0.35;;
20855;SDS011;63058;49.424;8.420;2022-09-09T05:33:37;1.10;;;0.50;;
20855;SDS011;63058;49.424;8.420;2022-09-09T05:36:07;1.27;;;0.30;;
20855;SDS011;63058;49.424;8.420;2022-09-09T05:38:35;0.88;;;0.40;;
20855;SDS011;63058;49.424;8.420;2022-09-09T05:41:02;0.75;;;0.40;;
20855;SDS011;63058;49.424;8.420;2022-09-09T05:43:28;2.42;;;0.65;;
20855;SDS011;63058;49.424;8.420;2022-09-09T05:48:30;2.08;;;0.40;;
20855;SDS011;63058;49.424;8.420;2022-09-09T05:50:58;1.00;;;0.40;;
20855;SDS011;63058;49.424;8.420;2022-09-09T05:53:24;1.20;;;0.47;;
20855;SDS011;63058;49.424;8.420;2022-09-09T05:55:50;1.13;;;0.47;;
20855;SDS011;63058;49.424;8.420;2022-09-09T05:58:25;0.70;;;0.50;;
20855;SDS011;63058;49.424;8.420;2022-09-09T06:00:50;3.15;;;0.60;;
20855;SDS011;63058;49.424;8.420;2022-09-09T06:03:16;1.67;;;0.50;;
20855;SDS011;63058;49.424;8.420;2022-09-09T06:05:42;1.15;;;0.40;;
20855;SDS011;63058;49.424;8.420;2022-09-09T06:08:07;1.50;;;0.40;;
20855;SDS011;63058;49.424;8.420;2022-09-09T06:10:33;1.30;;;0.50;;
20855;SDS011;63058;49.424;8.420;2022-09-09T06:12:59;1.58;;;0.50;;
20855;SDS011;63058;49.424;8.420;2022-09-09T06:15:24;1.85;;;0.77;;
20855;SDS011;63058;49.424;8.420;2022-09-09T06:17:56;1.40;;;0.47;;
20855;SDS011;63058;49.424;8.420;2022-09-09T06:20:21;3.10;;;0.50;;
20855;SDS011;63058;49.424;8.420;2022-09-09T06:22:47;1.95;;;0.40;;
20855;SDS011;63058;49.424;8.420;2022-09-09T06:25:13;3.33;;;0.65;;
20855;SDS011;63058;49.424;8.420;2022-09-09T06:27:39;1.60;;;0.60;;
20855;SDS011;63058;49.424;8.420;2022-09-09T06:30:05;1.85;;;0.57;;
20855;SDS011;63058;49.424;8.420;2022-09-09T06:32:32;1.13;;;0.40;;
20855;SDS011;63058;49.424;8.420;2022-09-09T06:34:59;2.55;;;0.52;;
20855;SDS011;63058;49.424;8.420;2022-09-09T06:37:26;1.23;;;0.40;;
20855;SDS011;63058;49.424;8.420;2022-09-09T06:39:52;2.42;;;0.60;;
20855;SDS011;63058;49.424;8.420;2022-09-09T06:42:19;1.20;;;0.40;;
20855;SDS011;63058;49.424;8.420;2022-09-09T06:44:45;3.00;;;0.60;;
20855;SDS011;63058;49.424;8.420;2022-09-09T06:47:10;2.78;;;0.52;;
20855;SDS011;63058;49.424;8.420;2022-09-09T06:49:36;2.78;;;0.60;;
20855;SDS011;63058;49.424;8.420;2022-09-09T06:52:02;2.25;;;0.70;;
20855;SDS011;63058;49.424;8.420;2022-09-09T06:54:27;1.83;;;0.52;;
20855;SDS011;63058;49.424;8.420;2022-09-09T06:56:53;2.78;;;0.43;;
20855;SDS011;63058;49.424;8.420;2022-09-09T06:59:18;1.88;;;0.60;;
20855;SDS011;63058;49.424;8.420;2022-09-09T07:01:44;1.65;;;0.40;;
20855;SDS011;63058;49.424;8.420;2022-09-09T07:04:11;2.03;;;0.50;;
20855;SDS011;63058;49.424;8.420;2022-09-09T07:06:39;1.95;;;0.47;;
20855;SDS011;63058;49.424;8.420;2022-09-09T07:09:08;1.15;;;0.52;;
20855;SDS011;63058;49.424;8.420;2022-09-09T07:11:39;3.22;;;0.65;;
20855;SDS011;63058;49.424;8.420;2022-09-09T07:14:09;0.95;;;0.40;;
20855;SDS011;63058;49.424;8.420;2022-09-09T07:16:39;3.25;;;0.50;;
20855;SDS011;63058;49.424;8.420;2022-09-09T07:19:05;2.97;;;0.50;;
20855;SDS011;63058;49.424;8.420;2022-09-09T07:21:31;3.50;;;0.77;;
20855;SDS011;63058;49.424;8.420;2022-09-09T07:23:58;2.30;;;0.50;;
20855;SDS011;63058;49.424;8.420;2022-09-09T07:26:26;1.38;;;0.52;;
20855;SDS011;63058;49.424;8.420;2022-09-09T07:28:53;1.15;;;0.50;;
20855;SDS011;63058;49.424;8.420;2022-09-09T07:31:22;2.20;;;0.60;;
20855;SDS011;63058;49.424;8.420;2022-09-09T07:33:50;2.38;;;0.57;;
20855;SDS011;63058;49.424;8.420;2022-09-09T07:36:17;2.95;;;0.70;;
20855;SDS011;63058;49.424;8.420;2022-09-09T07:38:49;2.67;;;0.70;;
20855;SDS011;63058;49.424;8.420;2022-09-09T07:41:18;1.10;;;0.50;;
20855;SDS011;63058;49.424;8.420;2022-09-09T07:43:46;4.30;;;0.55;;
20855;SDS011;63058;49.424;8.420;2022-09-09T07:46:13;1.05;;;0.32;;
20855;SDS011;63058;49.424;8.420;2022-09-09T07:48:44;3.28;;;0.55;;
20855;SDS011;63058;49.424;8.420;2022-09-09T07:51:12;2.78;;;0.60;;
20855;SDS011;63058;49.424;8.420;2022-09-09T07:53:43;1.65;;;0.70;;
20855;SDS011;63058;49.424;8.420;2022-09-09T07:56:10;1.60;;;0.57;;
20855;SDS011;63058;49.424;8.420;2022-09-09T07:58:37;3.28;;;0.68;;
20855;SDS011;63058;49.424;8.420;2022-09-09T08:01:10;1.88;;;0.52;;
20855;SDS011;63058;49.424;8.420;2022-09-09T08:03:52;2.22;;;0.70;;
20855;SDS011;63058;49.424;8.420;2022-09-09T08:06:20;4.55;;;0.80;;
20855;SDS011;63058;49.424;8.420;2022-09-09T08:08:49;1.67;;;0.60;;
20855;SDS011;63058;49.424;8.420;2022-09-09T08:11:16;1.75;;;0.60;;
20855;SDS011;63058;49.424;8.420;2022-09-09T08:13:42;2.05;;;0.88;;
20855;SDS011;63058;49.424;8.420;2022-09-09T08:16:22;2.92;;;0.70;;
20855;SDS011;63058;49.424;8.420;2022-09-09T08:18:50;4.35;;;0.52;;
20855;SDS011;63058;49.424;8.420;2022-09-09T08:21:21;4.05;;;0.70;;
20855;SDS011;63058;49.424;8.420;2022-09-09T08:23:49;2.53;;;0.60;;
20855;SDS011;63058;49.424;8.420;2022-09-09T08:26:18;6.32;;;0.70;;
20855;SDS011;63058;49.424;8.420;2022-09-09T08:28:47;3.45;;;0.80;;
20855;SDS011;63058;49.424;8.420;2022-09-09T08:31:17;1.90;;;0.50;;
20855;SDS011;63058;49.424;8.420;2022-09-09T08:33:44;2.35;;;0.50;;
20855;SDS011;63058;49.424;8.420;2022-09-09T08:36:16;2.28;;;0.77;;
20855;SDS011;63058;49.424;8.420;2022-09-09T08:38:47;2.40;;;0.65;;
20855;SDS011;63058;49.424;8.420;2022-09-09T08:51:50;2.30;;;0.57;;
20855;SDS011;63058;49.424;8.420;2022-09-09T08:54:20;3.20;;;0.77;;
20855;SDS011;63058;49.424;8.420;2022-09-09T08:56:46;3.10;;;0.60;;
20855;SDS011;63058;49.424;8.420;2022-09-09T08:59:14;3.60;;;0.70;;
20855;SDS011;63058;49.424;8.420;2022-09-09T09:04:51;3.38;;;0.70;;
20855;SDS011;63058;49.424;8.420;2022-09-09T09:07:48;1.63;;;0.50;;
20855;SDS011;63058;49.424;8.420;2022-09-09T09:10:34;2.75;;;0.65;;
20855;SDS011;63058;49.424;8.420;2022-09-09T09:13:04;1.98;;;0.80;;
20855;SDS011;63058;49.424;8.420;2022-09-09T09:15:58;3.88;;;1.08;;
20855;SDS011;63058;49.424;8.420;2022-09-09T09:18:29;1.63;;;0.60;;
20855;SDS011;63058;49.424;8.420;2022-09-09T09:20:58;2.97;;;0.73;;
20855;SDS011;63058;49.424;8.420;2022-09-09T09:23:55;3.63;;;0.82;;
20855;SDS011;63058;49.424;8.420;2022-09-09T09:26:23;2.97;;;0.70;;
20855;SDS011;63058;49.424;8.420;2022-09-09T09:28:55;2.92;;;1.00;;
20855;SDS011;63058;49.424;8.420;2022-09-09T09:31:24;3.30;;;0.63;;
20855;SDS011;63058;49.424;8.420;2022-09-09T09:33:52;4.03;;;0.80;;
20855;SDS011;63058;49.424;8.420;2022-09-09T09:36:19;4.45;;;0.70;;
20855;SDS011;63058;49.424;8.420;2022-09-09T09:38:58;5.88;;;0.82;;
20855;SDS011;63058;49.424;8.420;2022-09-09T09:41:41;1.75;;;0.60;;
20855;SDS011;63058;49.424;8.420;2022-09-09T09:44:27;6.65;;;0.70;;
20855;SDS011;63058;49.424;8.420;2022-09-09T09:49:33;4.97;;;0.85;;
20855;SDS011;63058;49.424;8.420;2022-09-09T09:52:03;0.20;;;0.20;;
20855;SDS011;63058;49.424;8.420;2022-09-09T09:54:30;0.35;;;0.20;;
20855;SDS011;63058;49.424;8.420;2022-09-09T09:57:11;0.35;;;0.35;;
20855;SDS011;63058;49.424;8.420;2022-09-09T09:59:39;0.10;;;0.10;;
20855;SDS011;63058;49.424;8.420;2022-09-09T10:08:03;0.03;;;0.03;;
20855;SDS011;63058;49.424;8.420;2022-09-09T10:13:20;0.00;;;0.00;;
20855;SDS011;63058;49.424;8.420;2022-09-09T10:16:06;0.10;;;0.10;;
20855;SDS011;63058;49.424;8.420;2022-09-09T10:29:23;0.10;;;0.10;;
20855;SDS011;63058;49.424;8.420;2022-09-09T10:41:06;0.13;;;0.13;;
20855;SDS011;63058;49.424;8.420;2022-09-09T11:26:46;0.30;;;0.10;;
20855;SDS011;63058;49.424;8.420;2022-09-09T11:29:39;0.65;;;0.20;;
20855;SDS011;63058;49.424;8.420;2022-09-09T11:38:21;0.30;;;0.20;;
20855;SDS011;63058;49.424;8.420;2022-09-09T11:41:02;1.63;;;0.30;;
20855;SDS011;63058;49.424;8.420;2022-09-09T11:43:41;0.32;;;0.10;;
20855;SDS011;63058;49.424;8.420;2022-09-09T11:46:12;0.28;;;0.20;;
20855;SDS011;63058;49.424;8.420;2022-09-09T11:48:45;0.13;;;0.13;;
20855;SDS011;63058;49.424;8.420;2022-09-09T11:59:16;0.13;;;0.10;;
20855;SDS011;63058;49.424;8.420;2022-09-09T12:07:03;0.10;;;0.10;;
20855;SDS011;63058;49.424;8.420;2022-09-09T12:09:52;0.25;;;0.20;;
20855;SDS011;63058;49.424;8.420;2022-09-09T12:12:27;0.65;;;0.10;;
20855;SDS011;63058;49.424;8.420;2022-09-09T12:17:28;0.80;;;0.35;;
20855;SDS011;63058;49.424;8.420;2022-09-09T12:23:15;2.13;;;0.50;;
20855;SDS011;63058;49.424;8.420;2022-09-09T12:26:14;1.40;;;0.38;;
20855;SDS011;63058;49.424;8.420;2022-09-09T12:31:56;1.80;;;0.43;;
20855;SDS011;63058;49.424;8.420;2022-09-09T12:34:44;1.45;;;0.43;;
20855;SDS011;63058;49.424;8.420;2022-09-09T12:39:58;4.10;;;0.65;;
20855;SDS011;63058;49.424;8.420;2022-09-09T12:42:27;2.28;;;0.57;;
20855;SDS011;63058;49.424;8.420;2022-09-09T12:44:54;5.47;;;0.98;;
20855;SDS011;63058;49.424;8.420;2022-09-09T12:47:38;2.13;;;0.47;;
20855;SDS011;63058;49.424;8.420;2022-09-09T12:50:15;2.42;;;0.60;;
20855;SDS011;63058;49.424;8.420;2022-09-09T12:52:44;4.53;;;0.82;;
20855;SDS011;63058;49.424;8.420;2022-09-09T12:55:16;7.88;;;0.85;;
20855;SDS011;63058;49.424;8.420;2022-09-09T12:57:44;3.65;;;0.80;;
20855;SDS011;63058;49.424;8.420;2022-09-09T13:00:15;2.15;;;0.50;;
20855;SDS011;63058;49.424;8.420;2022-09-09T13:02:49;1.35;;;0.60;;
20855;SDS011;63058;49.424;8.420;2022-09-09T13:05:23;2.55;;;0.60;;
20855;SDS011;63058;49.424;8.420;2022-09-09T13:08:02;3.53;;;0.70;;
20855;SDS011;63058;49.424;8.420;2022-09-09T13:10:49;2.60;;;0.50;;
20855;SDS011;63058;49.424;8.420;2022-09-09T13:13:23;4.22;;;0.75;;
20855;SDS011;63058;49.424;8.420;2022-09-09T13:15:59;4.25;;;0.60;;
20855;SDS011;63058;49.424;8.420;2022-09-09T13:18:46;3.30;;;0.70;;
20855;SDS011;63058;49.424;8.420;2022-09-09T13:21:13;2.92;;;0.80;;
20855;SDS011;63058;49.424;8.420;2022-09-09T13:23:42;2.40;;;0.50;;
20855;SDS011;63058;49.424;8.420;2022-09-09T13:26:26;2.22;;;0.60;;
20855;SDS011;63058;49.424;8.420;2022-09-09T13:28:55;2.35;;;0.70;;
20855;SDS011;63058;49.424;8.420;2022-09-09T13:31:46;2.58;;;0.82;;
20855;SDS011;63058;49.424;8.420;2022-09-09T13:34:33;2.30;;;0.45;;
20855;SDS011;63058;49.424;8.420;2022-09-09T13:37:19;1.02;;;0.50;;
20855;SDS011;63058;49.424;8.420;2022-09-09T13:39:59;1.33;;;0.35;;
20855;SDS011;63058;49.424;8.420;2022-09-09T13:42:27;0.73;;;0.38;;
20855;SDS011;63058;49.424;8.420;2022-09-09T13:44:55;2.65;;;0.20;;
20855;SDS011;63058;49.424;8.420;2022-09-09T13:47:27;1.48;;;0.30;;
20855;SDS011;63058;49.424;8.420;2022-09-09T13:49:56;1.20;;;0.30;;
20855;SDS011;63058;49.424;8.420;2022-09-09T13:52:25;0.80;;;0.35;;
20855;SDS011;63058;49.424;8.420;2022-09-09T13:54:55;0.65;;;0.30;;
20855;SDS011;63058;49.424;8.420;2022-09-09T13:57:23;0.77;;;0.20;;
20855;SDS011;63058;49.424;8.420;2022-09-09T13:59:51;1.02;;;0.20;;
20855;SDS011;63058;49.424;8.420;2022-09-09T14:02:19;1.80;;;0.47;;
20855;SDS011;63058;49.424;8.420;2022-09-09T14:04:47;1.02;;;0.38;;
20855;SDS011;63058;49.424;8.420;2022-09-09T14:07:17;0.95;;;0.30;;
20855;SDS011;63058;49.424;8.420;2022-09-09T14:09:44;0.77;;;0.40;;
20855;SDS011;63058;49.424;8.420;2022-09-09T14:12:15;2.03;;;0.40;;
20855;SDS011;63058;49.424;8.420;2022-09-09T14:14:41;3.17;;;0.52;;
20855;SDS011;63058;49.424;8.420;2022-09-09T14:17:08;0.73;;;0.35;;
20855;SDS011;63058;49.424;8.420;2022-09-09T14:19:34;1.73;;;0.50;;
20855;SDS011;63058;49.424;8.420;2022-09-09T14:21:59;1.35;;;0.43;;
20855;SDS011;63058;49.424;8.420;2022-09-09T14:24:32;0.95;;;0.30;;
20855;SDS011;63058;49.424;8.420;2022-09-09T14:26:58;1.05;;;0.30;;
20855;SDS011;63058;49.424;8.420;2022-09-09T14:29:26;1.50;;;0.60;;
20855;SDS011;63058;49.424;8.420;2022-09-09T14:31:51;0.88;;;0.47;;
20855;SDS011;63058;49.424;8.420;2022-09-09T14:34:17;1.20;;;0.40;;
20855;SDS011;63058;49.424;8.420;2022-09-09T14:36:43;2.20;;;0.40;;
20855;SDS011;63058;49.424;8.420;2022-09-09T14:39:10;2.55;;;0.70;;
20855;SDS011;63058;49.424;8.420;2022-09-09T14:41:36;2.00;;;0.50;;
20855;SDS011;63058;49.424;8.420;2022-09-09T14:44:02;2.55;;;0.70;;
20855;SDS011;63058;49.424;8.420;2022-09-09T14:46:28;1.50;;;0.50;;
20855;SDS011;63058;49.424;8.420;2022-09-09T14:48:54;2.47;;;0.40;;
20855;SDS011;63058;49.424;8.420;2022-09-09T14:51:22;1.77;;;0.45;;
20855;SDS011;63058;49.424;8.420;2022-09-09T14:53:52;2.03;;;0.50;;
20855;SDS011;63058;49.424;8.420;2022-09-09T14:56:21;4.75;;;1.42;;
20855;SDS011;63058;49.424;8.420;2022-09-09T14:58:49;3.13;;;0.55;;
20855;SDS011;63058;49.424;8.420;2022-09-09T15:01:17;1.90;;;0.57;;
20855;SDS011;63058;49.424;8.420;2022-09-09T15:03:50;2.22;;;0.70;;
20855;SDS011;63058;49.424;8.420;2022-09-09T15:06:17;1.83;;;0.47;;
20855;SDS011;63058;49.424;8.420;2022-09-09T15:08:45;5.68;;;0.50;;
20855;SDS011;63058;49.424;8.420;2022-09-09T15:11:12;1.55;;;0.32;;
20855;SDS011;63058;49.424;8.420;2022-09-09T15:13:40;6.97;;;0.55;;
20855;SDS011;63058;49.424;8.420;2022-09-09T15:16:13;1.90;;;0.70;;
20855;SDS011;63058;49.424;8.420;2022-09-09T15:18:44;2.95;;;0.60;;
20855;SDS011;63058;49.424;8.420;2022-09-09T15:21:28;0.60;;;0.30;;
20855;SDS011;63058;49.424;8.420;2022-09-09T15:23:58;1.20;;;0.20;;
20855;SDS011;63058;49.424;8.420;2022-09-09T15:26:36;1.60;;;0.30;;
20855;SDS011;63058;49.424;8.420;2022-09-09T15:29:05;1.10;;;0.50;;
20855;SDS011;63058;49.424;8.420;2022-09-09T15:31:33;1.15;;;0.40;;
20855;SDS011;63058;49.424;8.420;2022-09-09T15:34:00;1.02;;;0.50;;
20855;SDS011;63058;49.424;8.420;2022-09-09T15:36:28;1.67;;;0.60;;
20855;SDS011;63058;49.424;8.420;2022-09-09T15:41:48;0.75;;;0.32;;
20855;SDS011;63058;49.424;8.420;2022-09-09T15:44:16;0.57;;;0.32;;
20855;SDS011;63058;49.424;8.420;2022-09-09T15:46:52;0.63;;;0.40;;
20855;SDS011;63058;49.424;8.420;2022-09-09T15:49:22;0.93;;;0.40;;
20855;SDS011;63058;49.424;8.420;2022-09-09T15:51:54;1.13;;;0.55;;
20855;SDS011;63058;49.424;8.420;2022-09-09T15:54:32;1.38;;;0.47;;
20855;SDS011;63058;49.424;8.420;2022-09-09T15:57:11;3.00;;;0.68;;
20855;SDS011;63058;49.424;8.420;2022-09-09T15:59:38;1.00;;;0.70;;
20855;SDS011;63058;49.424;8.420;2022-09-09T16:02:06;0.93;;;0.55;;
20855;SDS011;63058;49.424;8.420;2022-09-09T16:04:35;0.82;;;0.30;;
20855;SDS011;63058;49.424;8.420;2022-09-09T16:07:03;0.95;;;0.30;;
20855;SDS011;63058;49.424;8.420;2022-09-09T16:09:30;0.85;;;0.38;;
20855;SDS011;63058;49.424;8.420;2022-09-09T16:11:57;0.73;;;0.50;;
20855;SDS011;63058;49.424;8.420;2022-09-09T16:14:33;0.63;;;0.35;;
20855;SDS011;63058;49.424;8.420;2022-09-09T16:17:00;1.20;;;0.40;;
20855;SDS011;63058;49.424;8.420;2022-09-09T16:19:47;0.90;;;0.30;;
20855;SDS011;63058;49.424;8.420;2022-09-09T16:22:14;1.20;;;0.40;;
20855;SDS011;63058;49.424;8.420;2022-09-09T16:24:46;1.08;;;0.45;;
20855;SDS011;63058;49.424;8.420;2022-09-09T16:27:14;1.02;;;0.30;;
20855;SDS011;63058;49.424;8.420;2022-09-09T16:29:40;0.75;;;0.35;;
20855;SDS011;63058;49.424;8.420;2022-09-09T16:32:06;0.50;;;0.22;;
20855;SDS011;63058;49.424;8.420;2022-09-09T16:34:33;1.08;;;0.30;;
20855;SDS011;63058;49.424;8.420;2022-09-09T16:36:59;0.25;;;0.25;;
20855;SDS011;63058;49.424;8.420;2022-09-09T16:39:46;1.45;;;0.40;;
20855;SDS011;63058;49.424;8.420;2022-09-09T16:42:42;0.43;;;0.30;;
20855;SDS011;63058;49.424;8.420;2022-09-09T16:45:25;1.90;;;0.50;;
20855;SDS011;63058;49.424;8.420;2022-09-09T16:51:51;0.40;;;0.25;;
20855;SDS011;63058;49.424;8.420;2022-09-09T16:54:46;0.75;;;0.30;;
20855;SDS011;63058;49.424;8.420;2022-09-09T16:57:26;1.25;;;0.50;;
20855;SDS011;63058;49.424;8.420;2022-09-09T17:00:34;0.73;;;0.38;;
20855;SDS011;63058;49.424;8.420;2022-09-09T17:04:17;0.38;;;0.38;;
20855;SDS011;63058;49.424;8.420;2022-09-09T17:07:19;0.80;;;0.40;;
20855;SDS011;63058;49.424;8.420;2022-09-09T17:09:47;0.45;;;0.38;;
20855;SDS011;63058;49.424;8.420;2022-09-09T17:12:52;0.98;;;0.40;;
20855;SDS011;63058;49.424;8.420;2022-09-09T17:15:38;0.95;;;0.55;;
20855;SDS011;63058;49.424;8.420;2022-09-09T17:20:42;1.00;;;0.40;;
20855;SDS011;63058;49.424;8.420;2022-09-09T17:23:09;2.25;;;0.50;;
20855;SDS011;63058;49.424;8.420;2022-09-09T17:25:36;1.77;;;0.43;;
20855;SDS011;63058;49.424;8.420;2022-09-09T17:28:03;0.40;;;0.40;;
20855;SDS011;63058;49.424;8.420;2022-09-09T17:30:29;1.67;;;0.40;;
20855;SDS011;63058;49.424;8.420;2022-09-09T17:33:04;0.55;;;0.35;;
20855;SDS011;63058;49.424;8.420;2022-09-09T17:35:31;1.20;;;0.50;;
20855;SDS011;63058;49.424;8.420;2022-09-09T17:37:58;1.50;;;0.45;;
20855;SDS011;63058;49.424;8.420;2022-09-09T17:40:23;0.65;;;0.40;;
20855;SDS011;63058;49.424;8.420;2022-09-09T17:42:52;0.32;;;0.32;;
20855;SDS011;63058;49.424;8.420;2022-09-09T17:45:17;0.28;;;0.28;;
20855;SDS011;63058;49.424;8.420;2022-09-09T17:47:44;0.43;;;0.30;;
20855;SDS011;63058;49.424;8.420;2022-09-09T17:50:09;0.70;;;0.32;;
20855;SDS011;63058;49.424;8.420;2022-09-09T17:52:37;0.93;;;0.50;;
20855;SDS011;63058;49.424;8.420;2022-09-09T17:55:04;0.95;;;0.30;;